Time;durP1;ratioP1;P1;durP2;ratioP2;P2;SDS_P1;SDS_P2;PMS_P1;PMS_P2;Temp;Humidity;BMP_temperature;BMP_pressure;BME280_temperature;BME280_humidity;BME280_pressure;Samples;Min_cycle;Max_cycle;Signal;HPM_P1;HPM_P2
2022/05/15 00:01:42;;;;;;;9.67;4.57;;;;;;;16.24;100.00;99386.84;5136766;27;20197;-88
2022/05/15 00:04:13;;;;;;;6.43;4.23;;;;;;;16.23;100.00;99386.97;5111403;28;20195;-88
2022/05/15 00:06:44;;;;;;;9.70;4.40;;;;;;;16.20;100.00;99384.53;5109329;28;20254;-87
2022/05/15 00:09:14;;;;;;;7.03;4.10;;;;;;;15.99;100.00;99371.13;5110315;28;20274;-88
2022/05/15 00:11:43;;;;;;;10.50;4.40;;;;;;;15.89;100.00;99367.53;5107599;28;20203;-88
2022/05/15 00:14:17;;;;;;;7.80;4.10;;;;;;;15.83;100.00;99368.91;5109013;28;20326;-88
2022/05/15 00:16:48;;;;;;;9.33;4.57;;;;;;;15.92;100.00;99367.28;5108488;28;20301;-88
2022/05/15 00:19:19;;;;;;;8.20;4.57;;;;;;;15.79;100.00;99369.28;5110266;28;20582;-88
2022/05/15 00:21:48;;;;;;;9.77;5.00;;;;;;;15.48;100.00;99368.22;5110337;27;20218;-88
2022/05/15 00:24:19;;;;;;;9.30;4.70;;;;;;;15.42;100.00;99367.72;5131383;27;20209;-88
2022/05/15 00:26:48;;;;;;;6.90;4.70;;;;;;;15.44;100.00;99370.28;5132288;27;20195;-87
2022/05/15 00:29:18;;;;;;;9.80;4.90;;;;;;;15.58;100.00;99366.50;5124942;28;20301;-87
2022/05/15 00:31:48;;;;;;;8.20;5.13;;;;;;;15.21;100.00;99369.47;5132806;28;20612;-88
2022/05/15 00:34:21;;;;;;;8.17;4.83;;;;;;;15.31;100.00;99369.56;5132969;28;20197;-88
2022/05/15 00:36:50;;;;;;;8.53;4.83;;;;;;;15.09;100.00;99365.97;5136642;28;20274;-89
2022/05/15 00:39:22;;;;;;;9.10;4.80;;;;;;;15.14;100.00;99366.41;5132894;28;20217;-88
2022/05/15 00:41:53;;;;;;;11.50;5.03;;;;;;;15.08;100.00;99364.25;5105808;27;20190;-89
2022/05/15 00:44:22;;;;;;;9.70;4.70;;;;;;;15.07;100.00;99362.56;5139863;27;20234;-88
2022/05/15 00:46:53;;;;;;;8.57;5.10;;;;;;;15.04;100.00;99364.59;5132436;27;20202;-88
2022/05/15 00:49:22;;;;;;;10.17;4.80;;;;;;;14.96;100.00;99364.34;5137359;27;20188;-88
2022/05/15 00:51:55;;;;;;;10.57;5.07;;;;;;;15.03;100.00;99366.44;5094922;28;20195;-88
2022/05/15 00:54:28;;;;;;;9.10;4.83;;;;;;;14.90;100.00;99368.38;5089991;28;20230;-87
2022/05/15 00:57:01;;;;;;;10.17;4.33;;;;;;;15.09;100.00;99370.44;5090184;28;20242;-88
2022/05/15 00:59:35;;;;;;;10.30;4.83;;;;;;;14.86;100.00;99361.56;5090341;28;20188;-88
2022/05/15 01:02:06;;;;;;;9.13;5.00;;;;;;;14.79;100.00;99365.69;5090371;28;20271;-88
2022/05/15 01:04:35;;;;;;;7.43;4.70;;;;;;;14.88;100.00;99363.16;5086537;28;20211;-88
2022/05/15 01:07:05;;;;;;;9.73;4.80;;;;;;;14.85;100.00;99365.19;5095341;28;20334;-88
2022/05/15 01:09:34;;;;;;;8.80;4.30;;;;;;;14.92;100.00;99371.75;5057629;27;20198;-87
2022/05/15 01:12:09;;;;;;;9.87;4.30;;;;;;;14.91;100.00;99359.41;5133646;27;20205;-87
2022/05/15 01:14:42;;;;;;;10.20;4.60;;;;;;;14.83;100.00;99370.66;5138910;27;20202;-88
2022/05/15 01:17:12;;;;;;;10.30;4.37;;;;;;;14.91;100.00;99377.22;5135615;27;20255;-88
2022/05/15 01:19:42;;;;;;;9.67;4.30;;;;;;;15.00;100.00;99360.50;5135227;27;20210;-88
2022/05/15 01:22:15;;;;;;;7.13;4.23;;;;;;;14.87;100.00;99365.97;5137712;27;20198;-89
2022/05/15 01:24:45;;;;;;;10.20;4.43;;;;;;;14.82;100.00;99373.47;5135291;27;20212;-89
2022/05/15 01:27:14;;;;;;;12.33;5.10;;;;;;;14.91;100.00;99369.22;5139762;27;20198;-88
2022/05/15 01:29:46;;;;;;;9.30;4.60;;;;;;;14.83;100.00;99373.34;5158858;27;20189;-89
2022/05/15 01:32:15;;;;;;;9.97;4.50;;;;;;;14.82;100.00;99368.97;5152405;27;20203;-87
2022/05/15 01:34:43;;;;;;;5.03;4.20;;;;;;;14.81;100.00;99372.59;5153825;27;20230;-88
2022/05/15 01:37:15;;;;;;;8.57;4.30;;;;;;;14.89;100.00;99380.03;5147947;27;20225;-88
2022/05/15 01:39:43;;;;;;;8.90;4.30;;;;;;;14.83;100.00;99372.47;5150678;27;20197;-88
2022/05/15 01:42:12;;;;;;;7.93;4.13;;;;;;;14.78;100.00;99369.34;5107356;27;20188;-88
2022/05/15 01:44:40;;;;;;;8.50;4.37;;;;;;;14.88;100.00;99370.31;5149840;27;20201;-88
2022/05/15 01:47:09;;;;;;;8.77;4.27;;;;;;;14.90;100.00;99371.03;5155262;27;20205;-88
2022/05/15 01:49:38;;;;;;;9.07;4.17;;;;;;;15.04;100.00;99369.94;5155183;27;20674;-87
2022/05/15 01:52:08;;;;;;;6.53;4.50;;;;;;;14.88;100.00;99373.84;5164385;27;20190;-88
2022/05/15 01:54:43;;;;;;;7.63;4.47;;;;;;;14.80;100.00;99373.59;5164200;27;20194;-87
2022/05/15 01:57:14;;;;;;;7.80;4.50;;;;;;;14.67;100.00;99377.28;5153972;27;20213;-88
2022/05/15 01:59:43;;;;;;;8.93;4.27;;;;;;;14.60;100.00;99374.28;5153687;27;20205;-88
2022/05/15 02:02:12;;;;;;;8.23;4.47;;;;;;;14.56;100.00;99378.13;5116176;28;20197;-88
2022/05/15 02:04:40;;;;;;;9.40;4.57;;;;;;;14.28;100.00;99376.69;5113484;28;20282;-88
2022/05/15 02:07:09;;;;;;;8.40;4.37;;;;;;;14.09;100.00;99384.38;5105037;28;20195;-88
2022/05/15 02:09:39;;;;;;;10.53;4.87;;;;;;;14.04;100.00;99374.06;5032693;28;20228;-87
2022/05/15 02:12:08;;;;;;;10.37;4.63;;;;;;;14.17;100.00;99374.00;5038504;28;20225;-89
2022/05/15 02:14:37;;;;;;;10.10;5.07;;;;;;;13.87;100.00;99370.00;5030593;28;20192;-88
2022/05/15 02:17:07;;;;;;;7.13;4.80;;;;;;;13.96;100.00;99369.31;5032236;28;20214;-88
2022/05/15 02:19:37;;;;;;;7.90;4.57;;;;;;;14.00;100.00;99370.81;5029755;28;20213;-88
2022/05/15 02:22:06;;;;;;;8.57;4.83;;;;;;;13.95;100.00;99372.09;5024429;28;20204;-88
2022/05/15 02:24:34;;;;;;;9.20;5.33;;;;;;;13.78;100.00;99372.47;5035168;28;20232;-89
2022/05/15 02:27:04;;;;;;;11.80;5.30;;;;;;;13.71;100.00;99375.63;5071912;27;20189;-88
2022/05/15 02:29:34;;;;;;;9.97;4.93;;;;;;;13.85;100.00;99371.91;5153307;27;20672;-89
2022/05/15 02:32:02;;;;;;;9.80;5.17;;;;;;;13.84;100.00;99382.69;5153601;27;20629;-88
2022/05/15 02:34:31;;;;;;;11.47;4.93;;;;;;;13.64;100.00;99378.84;5152769;27;20376;-87
2022/05/15 02:36:59;;;;;;;8.20;5.03;;;;;;;13.62;100.00;99378.94;5154055;27;20296;-87
2022/05/15 02:39:29;;;;;;;9.23;5.43;;;;;;;13.69;100.00;99382.84;5152822;27;20675;-88
2022/05/15 02:41:57;;;;;;;9.37;5.23;;;;;;;13.63;100.00;99372.66;5149869;27;20202;-89
2022/05/15 02:44:27;;;;;;;11.80;5.40;;;;;;;13.67;100.00;99373.28;5151420;27;20193;-88
2022/05/15 02:46:55;;;;;;;12.63;5.53;;;;;;;13.78;100.00;99375.16;5149320;27;20201;-88
2022/05/15 02:52:10;;;;;;;10.43;5.37;;;;;;;13.99;100.00;99382.41;5157747;27;20213;-87
2022/05/15 02:54:38;;;;;;;7.93;5.07;;;;;;;13.86;100.00;99372.78;5157779;27;20269;-88
2022/05/15 02:57:08;;;;;;;7.00;4.97;;;;;;;13.93;100.00;99374.03;5152851;27;20296;-88
2022/05/15 02:59:38;;;;;;;7.97;5.00;;;;;;;13.76;100.00;99380.59;5149817;27;20269;-88
2022/05/15 03:02:07;;;;;;;6.93;5.10;;;;;;;13.68;100.00;99394.44;5151300;27;20193;-88
2022/05/15 03:04:36;;;;;;;9.93;5.57;;;;;;;13.78;100.00;99386.66;5156628;27;20671;-87
2022/05/15 03:07:06;;;;;;;12.47;5.10;;;;;;;13.65;100.00;99392.03;5155231;27;20194;-88
2022/05/15 03:09:35;;;;;;;8.70;4.60;;;;;;;13.78;100.00;99391.97;5152990;27;20246;-87
2022/05/15 03:12:04;;;;;;;10.93;5.30;;;;;;;13.71;100.00;99391.59;5154882;27;20197;-88
2022/05/15 03:14:33;;;;;;;9.00;5.00;;;;;;;13.62;100.00;99394.91;5156455;27;20217;-87
2022/05/15 03:17:03;;;;;;;9.23;4.70;;;;;;;13.51;100.00;99388.66;5151717;27;20270;-88
2022/05/15 03:19:31;;;;;;;8.47;5.23;;;;;;;13.56;100.00;99390.03;5154514;27;20262;-88
2022/05/15 03:21:59;;;;;;;7.77;5.20;;;;;;;13.62;100.00;99389.59;5147044;27;20652;-88
2022/05/15 03:24:28;;;;;;;9.90;4.90;;;;;;;13.58;100.00;99388.09;5151347;27;20667;-88
2022/05/15 03:26:58;;;;;;;8.77;5.13;;;;;;;13.52;100.00;99390.38;5150322;27;20190;-88
2022/05/15 03:29:27;;;;;;;9.30;5.60;;;;;;;13.44;100.00;99391.78;5151086;27;20233;-88
2022/05/15 03:31:55;;;;;;;10.83;5.70;;;;;;;13.48;100.00;99391.53;5160222;27;20198;-88
2022/05/15 03:34:25;;;;;;;12.53;5.87;;;;;;;13.37;100.00;99405.63;5155822;27;20204;-88
2022/05/15 03:36:55;;;;;;;10.53;5.03;;;;;;;13.46;100.00;99400.50;5096690;28;20222;-87
2022/05/15 03:39:24;;;;;;;8.33;5.33;;;;;;;13.60;100.00;99395.97;5063268;28;20241;-88
2022/05/15 03:41:56;;;;;;;6.80;4.80;;;;;;;13.48;100.00;99404.84;5094137;28;20191;-88
2022/05/15 03:44:24;;;;;;;11.17;4.93;;;;;;;13.51;100.00;99402.84;5092342;28;20270;-88
2022/05/15 03:46:52;;;;;;;9.90;4.93;;;;;;;13.31;100.00;99412.22;5090896;28;20196;-88
2022/05/15 03:49:21;;;;;;;9.37;5.10;;;;;;;13.35;100.00;99405.72;5094228;28;20187;-88
2022/05/15 03:51:51;;;;;;;8.53;4.70;;;;;;;13.29;100.00;99411.47;5057726;28;20286;-88
2022/05/15 03:54:19;;;;;;;11.20;5.30;;;;;;;13.07;100.00;99412.13;5098369;27;20188;-88
2022/05/15 03:56:53;;;;;;;10.23;5.40;;;;;;;13.08;100.00;99400.53;5149853;27;20277;-87
2022/05/15 03:59:26;;;;;;;12.87;4.93;;;;;;;13.23;100.00;99414.59;5156430;27;20258;-88
2022/05/15 04:01:55;;;;;;;10.27;5.53;;;;;;;13.31;100.00;99409.56;5148376;27;20273;-88
2022/05/15 04:04:23;;;;;;;14.90;5.37;;;;;;;13.37;100.00;99416.25;5101995;27;20223;-88
2022/05/15 04:06:56;;;;;;;12.43;5.27;;;;;;;13.30;100.00;99407.00;5153054;27;20204;-88
2022/05/15 04:09:25;;;;;;;7.23;4.60;;;;;;;13.39;100.00;99414.34;5152242;27;20204;-86
2022/05/15 04:11:54;;;;;;;12.40;5.40;;;;;;;13.23;100.00;99417.25;5152989;27;20197;-88
2022/05/15 04:14:22;;;;;;;9.17;5.00;;;;;;;13.27;100.00;99420.53;5157518;27;20212;-87
2022/05/15 04:16:51;;;;;;;11.73;5.73;;;;;;;13.21;100.00;99418.31;5155772;27;20224;-87
2022/05/15 04:19:19;;;;;;;9.97;5.10;;;;;;;13.35;100.00;99415.53;5153248;27;20213;-87
2022/05/15 04:21:51;;;;;;;11.17;5.13;;;;;;;13.41;100.00;99415.06;5155071;27;20228;-89
2022/05/15 04:24:21;;;;;;;13.83;5.40;;;;;;;13.54;100.00;99409.75;5152205;27;20197;-88
2022/05/15 04:26:53;;;;;;;12.93;4.90;;;;;;;13.54;100.00;99407.09;5153481;27;20189;-87
2022/05/15 04:29:25;;;;;;;8.83;5.17;;;;;;;13.48;100.00;99412.84;5089077;28;20751;-88
2022/05/15 04:31:55;;;;;;;12.43;5.33;;;;;;;13.51;100.00;99416.16;5095265;28;20206;-87
2022/05/15 04:34:24;;;;;;;8.97;5.30;;;;;;;13.63;100.00;99404.59;5105307;28;20204;-86
2022/05/15 04:36:54;;;;;;;7.83;4.63;;;;;;;13.75;100.00;99413.50;5104863;28;20193;-87
2022/05/15 04:39:24;;;;;;;8.83;4.83;;;;;;;13.71;100.00;99409.38;5109715;28;20249;-87
2022/05/15 04:41:52;;;;;;;11.97;5.00;;;;;;;13.67;100.00;99408.72;5110105;28;20202;-86
2022/05/15 04:44:20;;;;;;;9.33;5.10;;;;;;;13.74;100.00;99415.31;5108491;28;20200;-87
2022/05/15 04:46:48;;;;;;;10.10;4.73;;;;;;;13.78;100.00;99409.75;5110956;28;20199;-88
2022/05/15 04:49:17;;;;;;;8.23;5.00;;;;;;;13.75;100.00;99411.69;5108047;28;20246;-87
2022/05/15 04:51:48;;;;;;;11.63;5.70;;;;;;;13.89;100.00;99404.50;5100508;28;20187;-87
2022/05/15 04:54:16;;;;;;;9.90;4.70;;;;;;;13.90;100.00;99406.22;5094059;28;20270;-89
2022/05/15 04:56:47;;;;;;;11.23;4.93;;;;;;;13.77;100.00;99403.59;5087694;28;20305;-88
2022/05/15 04:59:15;;;;;;;10.10;4.70;;;;;;;13.96;100.00;99403.94;5093325;28;20286;-88
2022/05/15 05:01:43;;;;;;;9.43;4.67;;;;;;;14.07;100.00;99411.13;5088563;28;20206;-88
2022/05/15 05:04:11;;;;;;;10.00;4.90;;;;;;;14.21;100.00;99402.13;5093095;28;20271;-88
2022/05/15 05:06:41;;;;;;;9.20;4.90;;;;;;;14.25;100.00;99411.56;5111777;27;20194;-88
2022/05/15 05:09:10;;;;;;;11.13;4.93;;;;;;;14.31;100.00;99411.97;5153211;27;20273;-87
2022/05/15 05:11:39;;;;;;;9.40;4.87;;;;;;;14.41;100.00;99408.59;5146879;27;20186;-88
2022/05/15 05:14:09;;;;;;;8.33;4.37;;;;;;;14.58;100.00;99410.88;5098203;27;20365;-89
2022/05/15 05:16:38;;;;;;;9.23;4.90;;;;;;;14.51;100.00;99406.97;5152008;27;20272;-87
2022/05/15 05:19:06;;;;;;;9.43;4.43;;;;;;;14.50;100.00;99405.28;5155865;27;20249;-90
2022/05/15 05:21:37;;;;;;;7.97;4.63;;;;;;;14.72;100.00;99412.47;5152708;27;20253;-88
2022/05/15 05:24:07;;;;;;;9.10;4.57;;;;;;;14.89;100.00;99418.22;5150863;27;20196;-88
2022/05/15 05:26:35;;;;;;;7.67;4.27;;;;;;;15.00;100.00;99403.19;5149039;27;20190;-88
2022/05/15 05:29:05;;;;;;;10.13;4.73;;;;;;;14.96;100.00;99409.72;5155872;27;20217;-87
2022/05/15 05:31:34;;;;;;;10.40;5.00;;;;;;;15.06;100.00;99416.06;5161544;27;20198;-87
2022/05/15 05:34:05;;;;;;;9.33;4.53;;;;;;;15.13;100.00;99407.41;5156662;27;20203;-89
2022/05/15 05:36:34;;;;;;;10.77;4.83;;;;;;;15.23;100.00;99414.69;5158424;27;20201;-88
2022/05/15 05:39:02;;;;;;;10.00;4.77;;;;;;;15.32;100.00;99420.16;5151111;27;20679;-88
2022/05/15 05:41:31;;;;;;;7.70;4.53;;;;;;;15.44;100.00;99424.53;5154658;27;20239;-89
2022/05/15 05:44:00;;;;;;;10.43;4.67;;;;;;;15.48;100.00;99419.78;5159270;27;20319;-88
2022/05/15 05:46:28;;;;;;;10.37;4.57;;;;;;;15.66;100.00;99429.03;5169351;27;20190;-88
2022/05/15 05:48:58;;;;;;;11.70;5.00;;;;;;;15.62;100.00;99421.38;5154354;27;20189;-89
2022/05/15 05:51:27;;;;;;;10.33;4.50;;;;;;;15.66;100.00;99428.19;5154502;27;20196;-87
2022/05/15 05:53:58;;;;;;;9.07;4.23;;;;;;;15.76;100.00;99422.94;5153797;27;20251;-88
2022/05/15 05:56:26;;;;;;;12.17;4.70;;;;;;;15.78;100.00;99426.34;5149793;27;20245;-89
2022/05/15 05:58:55;;;;;;;8.37;4.23;;;;;;;16.01;100.00;99427.97;5152347;27;20241;-88
2022/05/15 06:01:23;;;;;;;7.90;4.23;;;;;;;16.11;100.00;99425.38;5152937;27;20197;-88
2022/05/15 06:06:37;;;;;;;8.30;4.30;;;;;;;16.30;100.00;99438.91;5127177;27;20200;-88
2022/05/15 06:09:05;;;;;;;9.93;3.97;;;;;;;16.28;100.00;99439.06;5156417;27;20190;-88
2022/05/15 06:11:34;;;;;;;9.33;4.33;;;;;;;16.38;100.00;99433.78;5155250;27;20212;-88
2022/05/15 06:14:02;;;;;;;11.17;4.47;;;;;;;16.44;100.00;99438.63;5148826;27;20185;-88
2022/05/15 06:16:31;;;;;;;9.87;4.30;;;;;;;16.59;100.00;99439.16;5154395;27;20198;-88
2022/05/15 06:19:00;;;;;;;10.50;4.33;;;;;;;16.58;100.00;99434.78;5148279;27;20699;-88
2022/05/15 06:21:28;;;;;;;12.63;4.73;;;;;;;16.74;100.00;99435.22;5155680;27;20293;-88
2022/05/15 06:23:58;;;;;;;11.07;4.80;;;;;;;16.72;100.00;99439.88;5153073;27;20197;-88
2022/05/15 06:26:27;;;;;;;10.50;4.37;;;;;;;16.83;100.00;99442.47;5151145;27;20289;-88
2022/05/15 06:28:56;;;;;;;9.37;4.40;;;;;;;16.95;100.00;99440.56;5150621;27;20225;-89
2022/05/15 06:31:25;;;;;;;11.97;4.27;;;;;;;16.81;100.00;99431.06;5136940;27;20196;-87
2022/05/15 06:33:55;;;;;;;8.80;3.83;;;;;;;17.05;100.00;99428.09;5158654;27;20222;-88
2022/05/15 06:36:23;;;;;;;11.60;4.20;;;;;;;17.19;100.00;99437.63;5150378;27;20213;-88
2022/05/15 06:38:53;;;;;;;8.93;4.20;;;;;;;16.99;100.00;99435.81;5149844;27;20217;-90
2022/05/15 06:41:24;;;;;;;7.57;3.90;;;;;;;17.18;100.00;99435.94;5154088;27;20263;-89
2022/05/15 06:43:53;;;;;;;11.20;4.77;;;;;;;17.05;100.00;99428.09;5152816;27;20196;-88
2022/05/15 06:46:22;;;;;;;12.57;4.50;;;;;;;17.05;100.00;99425.41;5153960;27;20229;-89
2022/05/15 06:48:51;;;;;;;9.03;4.27;;;;;;;17.35;100.00;99423.72;5149031;27;20223;-89
2022/05/15 06:51:20;;;;;;;8.50;4.43;;;;;;;17.24;100.00;99419.31;5153661;27;20208;-88
2022/05/15 06:53:49;;;;;;;9.67;4.07;;;;;;;17.64;100.00;99432.72;5121953;27;20198;-89
2022/05/15 06:59:05;;;;;;;10.20;4.03;;;;;;;17.76;100.00;99435.31;5153005;27;20209;-87
2022/05/15 07:01:35;;;;;;;7.60;4.30;;;;;;;17.69;100.00;99426.97;5157881;27;20198;-87
2022/05/15 07:04:03;;;;;;;8.07;4.10;;;;;;;17.86;100.00;99431.69;5148999;27;20687;-89
2022/05/15 07:06:32;;;;;;;12.80;4.83;;;;;;;17.98;100.00;99427.06;5150891;27;20217;-88
2022/05/15 07:09:00;;;;;;;12.70;4.67;;;;;;;18.12;100.00;99423.13;5150610;27;20193;-89
2022/05/15 07:11:29;;;;;;;11.83;4.13;;;;;;;18.05;100.00;99427.31;5150255;27;20189;-88
2022/05/15 07:13:58;;;;;;;8.93;4.47;;;;;;;18.30;100.00;99424.13;5154890;27;20198;-88
2022/05/15 07:16:28;;;;;;;9.47;4.27;;;;;;;18.39;100.00;99419.75;5148832;27;20198;-87
2022/05/15 07:18:56;;;;;;;5.50;3.67;;;;;;;18.69;100.00;99418.75;5149251;27;20209;-89
2022/05/15 07:21:25;;;;;;;9.50;4.20;;;;;;;18.54;100.00;99411.13;5157191;27;20194;-88
2022/05/15 07:23:56;;;;;;;7.03;4.13;;;;;;;18.65;100.00;99412.00;5155183;27;20185;-89
2022/05/15 07:26:24;;;;;;;8.07;3.73;;;;;;;18.91;100.00;99414.91;5154216;27;20199;-89
2022/05/15 07:28:52;;;;;;;7.20;3.80;;;;;;;19.08;100.00;99419.53;5150119;27;20233;-88
2022/05/15 07:31:22;;;;;;;8.83;3.93;;;;;;;19.01;100.00;99418.41;5146660;27;20182;-87
2022/05/15 07:33:52;;;;;;;11.53;3.80;;;;;;;19.26;100.00;99412.41;5154322;27;20205;-89
2022/05/15 07:36:20;;;;;;;8.90;3.70;;;;;;;19.07;100.00;99409.78;5151941;27;20201;-88
2022/05/15 07:38:49;;;;;;;10.00;4.50;;;;;;;19.22;100.00;99408.31;5149335;27;20221;-88
2022/05/15 07:41:17;;;;;;;9.10;3.83;;;;;;;19.41;100.00;99408.25;5150350;27;20209;-88
2022/05/15 07:43:48;;;;;;;7.70;3.60;;;;;;;19.10;100.00;99414.84;5098201;27;20217;-88
2022/05/15 07:46:17;;;;;;;10.50;3.57;;;;;;;19.56;100.00;99410.47;5154195;27;20193;-88
2022/05/15 07:48:46;;;;;;;9.57;3.83;;;;;;;19.81;100.00;99406.22;5152213;27;20198;-89
2022/05/15 07:51:16;;;;;;;8.53;3.60;;;;;;;19.85;100.00;99403.06;5144456;27;20194;-88
2022/05/15 07:53:44;;;;;;;8.57;3.30;;;;;;;19.82;100.00;99402.53;5151065;27;20200;-87
2022/05/15 07:56:14;;;;;;;8.07;3.50;;;;;;;20.12;100.00;99398.66;5156853;27;20193;-88
2022/05/15 07:58:43;;;;;;;10.53;3.70;;;;;;;19.97;100.00;99396.47;5150890;27;20224;-88
2022/05/15 08:01:12;;;;;;;5.53;3.40;;;;;;;19.98;100.00;99397.34;5153477;27;20222;-87
2022/05/15 08:03:43;;;;;;;9.47;3.40;;;;;;;19.92;100.00;99403.31;5153516;27;20209;-88
2022/05/15 08:09:00;;;;;;;10.33;3.93;;;;;;;20.28;100.00;99394.28;5156023;27;20186;-88
2022/05/15 08:11:29;;;;;;;7.30;3.53;;;;;;;20.56;100.00;99391.53;5113139;28;20195;-88
2022/05/15 08:14:00;;;;;;;6.80;3.40;;;;;;;20.86;100.00;99388.38;5111655;28;20199;-87
2022/05/15 08:16:30;;;;;;;7.47;3.37;;;;;;;20.98;100.00;99388.09;5107178;28;20254;-88
2022/05/15 08:24:32;;;;;;;7.67;3.47;;;;;;;21.02;100.00;99386.78;5108229;28;20195;-89
2022/05/15 08:27:00;;;;;;;8.60;3.50;;;;;;;20.68;100.00;99387.56;5110190;28;20665;-87
2022/05/15 08:29:34;;;;;;;10.10;3.13;;;;;;;20.88;100.00;99382.81;5125879;27;20728;-88
2022/05/15 08:32:03;;;;;;;7.25;3.97;;;;;;;21.08;100.00;99376.22;5099003;27;20217;-88
2022/05/15 08:34:31;;;;;;;7.57;3.10;;;;;;;21.57;100.00;99376.47;5146608;27;20198;-88
2022/05/15 08:37:00;;;;;;;8.68;3.30;;;;;;;21.36;100.00;99376.06;5152135;27;20182;-88
2022/05/15 08:39:31;;;;;;;8.43;3.30;;;;;;;21.71;99.11;99372.28;5151780;27;20213;-86
2022/05/15 08:42:13;;;;;;;6.03;2.90;;;;;;;21.70;96.66;99371.44;5150318;27;20201;-88
2022/05/15 08:44:45;;;;;;;8.05;3.38;;;;;;;21.75;97.37;99379.06;5153795;27;20216;-88
2022/05/15 08:47:19;;;;;;;7.00;3.20;;;;;;;21.63;100.00;99372.28;5151937;27;20196;-87
2022/05/15 08:49:51;;;;;;;10.75;3.78;;;;;;;21.74;99.45;99371.97;5148394;27;20184;-87
2022/05/15 08:52:25;;;;;;;9.07;4.22;;;;;;;21.92;94.21;99374.56;5148272;27;20181;-88
2022/05/15 08:54:59;;;;;;;7.28;3.35;;;;;;;22.04;94.00;99381.31;5148135;27;20209;-87
2022/05/15 08:57:36;;;;;;;6.30;3.72;;;;;;;22.15;94.51;99385.56;5150926;27;20197;-87
2022/05/15 09:00:10;;;;;;;9.50;3.40;;;;;;;22.17;93.18;99381.69;5145752;27;20213;-88
2022/05/15 09:02:44;;;;;;;6.35;2.88;;;;;;;22.14;93.31;99375.78;5111454;28;20258;-86
2022/05/15 09:05:14;;;;;;;8.00;3.13;;;;;;;22.64;92.62;99381.03;5106570;28;20281;-86
2022/05/15 09:07:54;;;;;;;7.78;3.05;;;;;;;22.55;91.48;99384.75;5117558;28;20193;-87
2022/05/15 09:10:48;;;;;;;8.30;3.13;;;;;;;22.87;90.56;99380.34;5114469;28;20230;-87
2022/05/15 09:13:26;;;;;;;9.10;2.83;;;;;;;23.36;84.63;99379.25;5082962;28;20281;-88
2022/05/15 09:15:59;;;;;;;6.78;3.08;;;;;;;23.72;81.42;99383.31;5111583;28;20222;-86
2022/05/15 09:18:29;;;;;;;6.32;2.80;;;;;;;23.51;82.83;99375.78;5113838;28;20240;-87
2022/05/15 09:21:04;;;;;;;7.57;2.90;;;;;;;23.17;89.37;99374.22;5107695;28;20218;-87
2022/05/15 09:23:39;;;;;;;6.57;2.72;;;;;;;23.27;90.56;99369.47;5113612;28;20198;-87
2022/05/15 09:26:19;;;;;;;5.32;2.85;;;;;;;23.35;86.25;99371.28;5112875;27;20191;-87
2022/05/15 09:28:50;;;;;;;6.65;3.13;;;;;;;23.31;86.17;99367.25;5156758;27;20249;-88
2022/05/15 09:31:29;;;;;;;9.40;2.78;;;;;;;23.59;82.46;99371.22;5153889;27;20193;-87
2022/05/15 09:34:01;;;;;;;7.47;3.13;;;;;;;23.79;80.83;99368.91;5160291;27;20186;-88
2022/05/15 09:36:41;;;;;;;5.25;2.70;;;;;;;24.13;77.25;99375.81;5154959;27;20204;-87
2022/05/15 09:39:16;;;;;;;5.53;2.53;;;;;;;23.94;80.58;99363.59;5159098;27;20204;-87
2022/05/15 09:44:45;;;;;;;7.97;2.67;;;;;;;24.46;74.61;99366.44;5157197;27;20196;-87
2022/05/15 09:47:30;;;;;;;8.25;2.95;;;;;;;24.05;74.82;99365.03;5153524;27;20205;-88
2022/05/15 09:50:00;;;;;;;5.15;2.80;;;;;;;23.73;74.71;99360.66;5156723;27;20198;-87
2022/05/15 09:52:33;;;;;;;6.97;2.78;;;;;;;24.28;71.86;99371.28;5158965;27;20198;-87
2022/05/15 09:55:11;;;;;;;6.28;2.97;;;;;;;24.12;73.16;99358.72;5151635;27;20193;-87
2022/05/15 09:57:57;;;;;;;5.15;2.83;;;;;;;24.48;74.56;99363.56;5158984;27;20199;-88
2022/05/15 10:00:28;;;;;;;4.28;2.45;;;;;;;24.82;68.19;99360.38;5153720;27;20240;-89
2022/05/15 10:03:03;;;;;;;7.85;2.83;;;;;;;25.13;67.94;99359.41;5159253;27;20235;-87
2022/05/15 10:05:35;;;;;;;7.63;2.58;;;;;;;25.28;65.00;99352.06;5154730;27;20197;-88
2022/05/15 10:08:08;;;;;;;8.13;3.17;;;;;;;24.76;66.37;99353.81;5152364;27;20197;-87
2022/05/15 10:10:42;;;;;;;4.57;2.80;;;;;;;24.39;69.72;99354.66;5157036;27;20185;-88
2022/05/15 10:13:21;;;;;;;5.25;2.60;;;;;;;24.75;65.34;99348.56;5154653;27;20648;-88
2022/05/15 10:15:51;;;;;;;4.22;2.35;;;;;;;25.02;59.40;99360.69;5148527;27;20201;-88
2022/05/15 10:18:25;;;;;;;6.70;2.30;;;;;;;25.25;55.97;99347.88;5154265;27;20205;-88
2022/05/15 10:20:54;;;;;;;6.72;2.40;;;;;;;25.06;57.85;99348.44;5150167;27;20217;-88
2022/05/15 10:23:28;;;;;;;4.70;2.70;;;;;;;25.63;59.00;99336.88;5156377;27;20196;-88
2022/05/15 10:26:00;;;;;;;6.00;2.45;;;;;;;25.13;62.51;99337.69;5154616;27;20221;-88
2022/05/15 10:28:38;;;;;;;5.47;2.55;;;;;;;25.59;57.66;99331.00;5156466;27;20226;-87
2022/05/15 10:31:13;;;;;;;5.30;2.40;;;;;;;26.06;56.86;99335.13;5155638;27;20232;-88
2022/05/15 10:33:45;;;;;;;4.35;2.25;;;;;;;26.06;57.84;99334.28;5153337;27;20193;-88
2022/05/15 10:36:28;;;;;;;6.72;2.42;;;;;;;26.48;56.11;99323.41;5149489;27;20193;-88
2022/05/15 10:39:04;;;;;;;5.15;2.47;;;;;;;25.96;55.31;99321.84;5147560;27;20201;-88
2022/05/15 10:41:49;;;;;;;6.78;2.70;;;;;;;26.65;55.50;99320.41;5157383;27;20295;-88
2022/05/15 10:44:30;;;;;;;5.90;2.38;;;;;;;26.75;57.99;99319.03;5153890;27;20197;-88
2022/05/15 10:47:05;;;;;;;7.88;2.70;;;;;;;26.61;57.92;99317.22;5071205;28;20188;-88
2022/05/15 10:49:48;;;;;;;7.22;2.40;;;;;;;27.26;49.56;99310.56;5072352;28;20251;-87
2022/05/15 10:52:36;;;;;;;7.28;2.50;;;;;;;27.48;50.14;99310.44;5072812;28;20192;-87
2022/05/15 10:58:09;;;;;;;5.50;2.22;;;;;;;27.52;53.81;99311.72;5074457;28;20223;-86
2022/05/15 11:00:48;;;;;;;6.03;2.20;;;;;;;27.32;52.49;99304.31;4997187;28;20202;-85
2022/05/15 11:03:33;;;;;;;3.95;2.15;;;;;;;28.07;48.66;99307.06;4988994;28;20203;-86
2022/05/15 11:06:32;;;;;;;5.25;2.30;;;;;;;27.41;48.99;99298.69;5058564;28;20204;-87
2022/05/15 11:09:08;;;;;;;6.25;2.20;;;;;;;27.77;50.72;99292.97;5069024;28;20247;-86
2022/05/15 11:12:09;;;;;;;5.13;2.47;;;;;;;27.78;51.42;99286.47;5073295;28;20215;-87
2022/05/15 11:14:50;;;;;;;5.82;2.40;;;;;;;28.60;45.45;99282.59;5068447;28;20215;-87
2022/05/15 11:17:31;;;;;;;6.50;2.72;;;;;;;28.24;46.72;99281.09;5019996;28;20319;-86
2022/05/15 11:20:06;;;;;;;8.35;2.85;;;;;;;27.52;47.99;99281.78;5147294;27;20201;-86
2022/05/15 11:22:39;;;;;;;6.82;2.75;;;;;;;28.63;43.90;99282.16;5114249;28;20268;-87
2022/05/15 11:25:14;;;;;;;5.88;2.38;;;;;;;27.55;45.02;99275.94;5107550;28;20198;-87
2022/05/15 11:27:49;;;;;;;8.00;3.15;;;;;;;28.02;43.91;99275.00;5050957;28;20196;-86
2022/05/15 11:30:22;;;;;;;5.93;3.08;;;;;;;28.41;44.01;99263.31;5051264;28;20200;-86
2022/05/15 11:33:09;;;;;;;3.95;1.98;;;;;;;28.36;39.73;99267.72;5011154;28;20203;-86
2022/05/15 11:35:40;;;;;;;5.85;2.42;;;;;;;28.97;37.71;99264.72;5010710;28;20201;-86
2022/05/15 11:38:22;;;;;;;6.57;2.50;;;;;;;28.28;39.31;99270.59;5007848;28;20209;-86
2022/05/15 11:40:52;;;;;;;3.17;1.80;;;;;;;29.03;38.06;99256.50;5012685;28;20278;-87
2022/05/15 11:43:56;;;;;;;4.57;2.20;;;;;;;29.36;38.22;99247.34;5008128;28;20202;-86
2022/05/15 11:47:04;;;;;;;6.90;2.33;;;;;;;29.08;40.20;99253.97;5061978;28;20198;-86
2022/05/15 11:49:37;;;;;;;6.75;2.40;;;;;;;29.13;40.26;99258.78;5113488;28;20198;-86
2022/05/15 11:52:33;;;;;;;6.03;2.20;;;;;;;29.21;38.47;99258.53;5113343;28;20191;-86
2022/05/15 11:55:01;;;;;;;4.88;2.50;;;;;;;29.58;38.07;99247.88;5108766;28;20199;-86
2022/05/15 11:57:36;;;;;;;3.92;2.22;;;;;;;28.86;40.62;99249.81;5127821;27;20223;-86
2022/05/15 12:00:11;;;;;;;5.18;2.00;;;;;;;29.30;38.87;99242.75;5151112;27;20276;-86
2022/05/15 12:02:56;;;;;;;5.40;2.50;;;;;;;29.20;40.55;99245.94;5151593;27;20209;-86
2022/05/15 12:05:39;;;;;;;5.40;2.30;;;;;;;29.34;40.49;99227.63;5151661;27;20208;-85
2022/05/15 12:08:30;;;;;;;5.95;2.47;;;;;;;29.57;40.76;99227.94;5150578;27;20209;-86